Terminal Aerodrome Forecast
Issued by NWS

Home | Current Version | Previous Version | Text Only | Print | Product List | Glossary On
Versions: 1 2 3 4 5 6 7 8 9 10 11 12 13 14 15 16 17 18 19 20
000
FTUS43 KJKL 260836 AAA
TAFSME
TAF AMD
KSME 260836Z 2609/2706 00000KT P6SM VCSH BKN060 OVC150
      TEMPO 2609/2611 3SM -SHRA BR
     FM261300 23007KT P6SM BKN150
     FM262000 19004KT P6SM FEW060=

USA.gov is the U.S. government's official web portal to all federal, state and local government web resources and services.